sensor_id;sensor_type;location;lat;lon;timestamp;P1;durP1;ratioP1;P2;durP2;ratioP2
3036;SDS011;1528;52.550;13.408;2022-07-25T00:01:44;5.00;;;4.60;;
3036;SDS011;1528;52.550;13.408;2022-07-25T00:04:32;4.77;;;4.37;;
3036;SDS011;1528;52.550;13.408;2022-07-25T00:07:19;3.90;;;3.67;;
3036;SDS011;1528;52.550;13.408;2022-07-25T00:10:06;3.90;;;3.70;;
3036;SDS011;1528;52.550;13.408;2022-07-25T00:12:54;3.60;;;3.17;;
3036;SDS011;1528;52.550;13.408;2022-07-25T00:15:41;3.60;;;3.40;;
3036;SDS011;1528;52.550;13.408;2022-07-25T00:18:28;4.50;;;4.20;;
3036;SDS011;1528;52.550;13.408;2022-07-25T00:21:16;4.40;;;4.10;;
3036;SDS011;1528;52.550;13.408;2022-07-25T00:24:03;6.13;;;4.37;;
3036;SDS011;1528;52.550;13.408;2022-07-25T00:26:51;4.20;;;3.90;;
3036;SDS011;1528;52.550;13.408;2022-07-25T00:29:38;4.23;;;3.90;;
3036;SDS011;1528;52.550;13.408;2022-07-25T00:32:26;3.80;;;3.50;;
3036;SDS011;1528;52.550;13.408;2022-07-25T00:35:13;4.03;;;3.73;;
3036;SDS011;1528;52.550;13.408;2022-07-25T00:38:01;3.70;;;3.50;;
3036;SDS011;1528;52.550;13.408;2022-07-25T00:40:47;3.83;;;3.53;;
3036;SDS011;1528;52.550;13.408;2022-07-25T00:43:35;4.40;;;4.00;;
3036;SDS011;1528;52.550;13.408;2022-07-25T00:46:22;4.23;;;3.93;;
3036;SDS011;1528;52.550;13.408;2022-07-25T00:49:09;3.70;;;3.50;;
3036;SDS011;1528;52.550;13.408;2022-07-25T00:51:57;5.33;;;3.80;;
3036;SDS011;1528;52.550;13.408;2022-07-25T00:54:46;3.27;;;3.07;;
3036;SDS011;1528;52.550;13.408;2022-07-25T00:57:33;3.70;;;3.50;;
3036;SDS011;1528;52.550;13.408;2022-07-25T01:00:19;4.00;;;3.70;;
3036;SDS011;1528;52.550;13.408;2022-07-25T01:03:07;4.17;;;3.97;;
3036;SDS011;1528;52.550;13.408;2022-07-25T01:05:53;3.60;;;3.40;;
3036;SDS011;1528;52.550;13.408;2022-07-25T01:08:41;3.87;;;3.47;;
3036;SDS011;1528;52.550;13.408;2022-07-25T01:11:30;3.70;;;3.50;;
3036;SDS011;1528;52.550;13.408;2022-07-25T01:14:18;3.67;;;3.47;;
3036;SDS011;1528;52.550;13.408;2022-07-25T01:17:06;4.07;;;3.77;;
3036;SDS011;1528;52.550;13.408;2022-07-25T01:19:53;3.90;;;3.70;;
3036;SDS011;1528;52.550;13.408;2022-07-25T01:22:42;3.60;;;3.30;;
3036;SDS011;1528;52.550;13.408;2022-07-25T01:25:32;3.60;;;3.40;;
3036;SDS011;1528;52.550;13.408;2022-07-25T01:28:19;3.50;;;3.30;;
3036;SDS011;1528;52.550;13.408;2022-07-25T01:31:06;4.83;;;4.43;;
3036;SDS011;1528;52.550;13.408;2022-07-25T01:33:53;4.03;;;3.83;;
3036;SDS011;1528;52.550;13.408;2022-07-25T01:36:40;5.20;;;4.90;;
3036;SDS011;1528;52.550;13.408;2022-07-25T01:39:28;4.63;;;4.33;;
3036;SDS011;1528;52.550;13.408;2022-07-25T01:42:15;4.83;;;4.53;;
3036;SDS011;1528;52.550;13.408;2022-07-25T01:45:03;4.40;;;4.10;;
3036;SDS011;1528;52.550;13.408;2022-07-25T01:47:50;4.57;;;4.27;;
3036;SDS011;1528;52.550;13.408;2022-07-25T01:50:37;4.70;;;4.40;;
3036;SDS011;1528;52.550;13.408;2022-07-25T01:53:24;3.50;;;3.30;;
3036;SDS011;1528;52.550;13.408;2022-07-25T01:56:13;3.70;;;3.40;;
3036;SDS011;1528;52.550;13.408;2022-07-25T01:59:00;4.30;;;4.00;;
3036;SDS011;1528;52.550;13.408;2022-07-25T02:01:47;3.63;;;3.33;;
3036;SDS011;1528;52.550;13.408;2022-07-25T02:04:35;3.13;;;2.93;;
3036;SDS011;1528;52.550;13.408;2022-07-25T02:07:22;2.80;;;2.70;;
3036;SDS011;1528;52.550;13.408;2022-07-25T02:10:10;3.33;;;3.13;;
3036;SDS011;1528;52.550;13.408;2022-07-25T02:12:58;3.60;;;3.30;;
3036;SDS011;1528;52.550;13.408;2022-07-25T02:15:46;3.43;;;3.23;;
3036;SDS011;1528;52.550;13.408;2022-07-25T02:18:34;3.60;;;3.30;;
3036;SDS011;1528;52.550;13.408;2022-07-25T02:21:21;3.60;;;3.40;;
3036;SDS011;1528;52.550;13.408;2022-07-25T02:24:09;4.43;;;4.03;;
3036;SDS011;1528;52.550;13.408;2022-07-25T02:26:56;3.67;;;3.37;;
3036;SDS011;1528;52.550;13.408;2022-07-25T02:29:44;3.30;;;3.10;;
3036;SDS011;1528;52.550;13.408;2022-07-25T02:32:31;3.30;;;3.00;;
3036;SDS011;1528;52.550;13.408;2022-07-25T02:35:18;3.30;;;3.00;;
3036;SDS011;1528;52.550;13.408;2022-07-25T02:38:05;4.00;;;3.70;;
3036;SDS011;1528;52.550;13.408;2022-07-25T02:40:52;3.43;;;3.23;;
3036;SDS011;1528;52.550;13.408;2022-07-25T02:43:39;3.70;;;3.50;;
3036;SDS011;1528;52.550;13.408;2022-07-25T02:46:28;3.73;;;3.43;;
3036;SDS011;1528;52.550;13.408;2022-07-25T02:49:15;3.40;;;3.20;;
3036;SDS011;1528;52.550;13.408;2022-07-25T02:52:02;3.80;;;3.50;;
3036;SDS011;1528;52.550;13.408;2022-07-25T02:54:55;4.07;;;3.77;;
3036;SDS011;1528;52.550;13.408;2022-07-25T02:57:42;3.90;;;3.63;;
3036;SDS011;1528;52.550;13.408;2022-07-25T03:00:29;3.27;;;3.07;;
3036;SDS011;1528;52.550;13.408;2022-07-25T03:03:17;4.33;;;3.20;;
3036;SDS011;1528;52.550;13.408;2022-07-25T03:06:04;4.00;;;3.70;;
3036;SDS011;1528;52.550;13.408;2022-07-25T03:08:52;3.40;;;3.10;;
3036;SDS011;1528;52.550;13.408;2022-07-25T03:11:39;3.90;;;3.60;;
3036;SDS011;1528;52.550;13.408;2022-07-25T03:14:26;4.13;;;3.83;;
3036;SDS011;1528;52.550;13.408;2022-07-25T03:17:12;3.87;;;3.67;;
3036;SDS011;1528;52.550;13.408;2022-07-25T03:20:01;4.20;;;3.90;;
3036;SDS011;1528;52.550;13.408;2022-07-25T03:22:48;4.43;;;4.13;;
3036;SDS011;1528;52.550;13.408;2022-07-25T03:25:35;4.17;;;3.87;;
3036;SDS011;1528;52.550;13.408;2022-07-25T03:28:22;3.13;;;2.93;;
3036;SDS011;1528;52.550;13.408;2022-07-25T03:31:09;3.93;;;3.63;;
3036;SDS011;1528;52.550;13.408;2022-07-25T03:33:59;4.20;;;3.80;;
3036;SDS011;1528;52.550;13.408;2022-07-25T03:36:47;4.47;;;4.17;;
3036;SDS011;1528;52.550;13.408;2022-07-25T03:39:34;3.80;;;3.60;;
3036;SDS011;1528;52.550;13.408;2022-07-25T03:42:21;4.03;;;3.80;;
3036;SDS011;1528;52.550;13.408;2022-07-25T03:45:14;3.87;;;3.23;;
3036;SDS011;1528;52.550;13.408;2022-07-25T03:48:00;4.20;;;3.90;;
3036;SDS011;1528;52.550;13.408;2022-07-25T03:50:47;4.03;;;3.73;;
3036;SDS011;1528;52.550;13.408;2022-07-25T03:53:35;3.77;;;3.50;;
3036;SDS011;1528;52.550;13.408;2022-07-25T03:56:37;3.63;;;3.43;;
3036;SDS011;1528;52.550;13.408;2022-07-25T03:59:25;4.80;;;4.30;;
3036;SDS011;1528;52.550;13.408;2022-07-25T04:02:13;4.80;;;4.50;;
3036;SDS011;1528;52.550;13.408;2022-07-25T04:05:03;5.27;;;4.87;;
3036;SDS011;1528;52.550;13.408;2022-07-25T04:07:51;4.67;;;4.27;;
3036;SDS011;1528;52.550;13.408;2022-07-25T04:10:39;4.67;;;4.37;;
3036;SDS011;1528;52.550;13.408;2022-07-25T04:13:26;4.43;;;4.13;;
3036;SDS011;1528;52.550;13.408;2022-07-25T04:16:14;4.20;;;3.90;;
3036;SDS011;1528;52.550;13.408;2022-07-25T04:19:01;4.87;;;4.47;;
3036;SDS011;1528;52.550;13.408;2022-07-25T04:21:49;3.93;;;3.63;;
3036;SDS011;1528;52.550;13.408;2022-07-25T04:24:37;4.33;;;3.93;;
3036;SDS011;1528;52.550;13.408;2022-07-25T04:27:25;4.20;;;3.90;;
3036;SDS011;1528;52.550;13.408;2022-07-25T04:30:12;3.90;;;3.60;;
3036;SDS011;1528;52.550;13.408;2022-07-25T04:33:00;4.40;;;4.00;;
3036;SDS011;1528;52.550;13.408;2022-07-25T04:35:47;4.00;;;3.70;;
3036;SDS011;1528;52.550;13.408;2022-07-25T04:38:37;3.77;;;3.47;;
3036;SDS011;1528;52.550;13.408;2022-07-25T04:41:24;4.40;;;4.00;;
3036;SDS011;1528;52.550;13.408;2022-07-25T04:44:13;5.30;;;4.13;;
3036;SDS011;1528;52.550;13.408;2022-07-25T04:47:00;4.30;;;4.00;;
3036;SDS011;1528;52.550;13.408;2022-07-25T04:49:47;4.30;;;4.00;;
3036;SDS011;1528;52.550;13.408;2022-07-25T04:52:37;4.13;;;3.83;;
3036;SDS011;1528;52.550;13.408;2022-07-25T04:55:24;3.90;;;3.60;;
3036;SDS011;1528;52.550;13.408;2022-07-25T04:58:11;4.80;;;4.50;;
3036;SDS011;1528;52.550;13.408;2022-07-25T05:00:59;4.43;;;4.13;;
3036;SDS011;1528;52.550;13.408;2022-07-25T05:03:45;4.80;;;4.40;;
3036;SDS011;1528;52.550;13.408;2022-07-25T05:06:30;4.80;;;4.50;;
3036;SDS011;1528;52.550;13.408;2022-07-25T05:09:16;4.93;;;4.63;;
3036;SDS011;1528;52.550;13.408;2022-07-25T05:12:01;4.43;;;4.00;;
3036;SDS011;1528;52.550;13.408;2022-07-25T05:14:47;5.17;;;4.87;;
3036;SDS011;1528;52.550;13.408;2022-07-25T05:17:34;5.03;;;4.63;;
3036;SDS011;1528;52.550;13.408;2022-07-25T05:20:19;5.50;;;5.00;;
3036;SDS011;1528;52.550;13.408;2022-07-25T05:23:05;4.77;;;4.37;;
3036;SDS011;1528;52.550;13.408;2022-07-25T05:25:50;4.60;;;4.30;;
3036;SDS011;1528;52.550;13.408;2022-07-25T05:28:36;4.80;;;4.40;;
3036;SDS011;1528;52.550;13.408;2022-07-25T05:31:21;4.93;;;4.53;;
3036;SDS011;1528;52.550;13.408;2022-07-25T05:34:08;4.43;;;4.13;;
3036;SDS011;1528;52.550;13.408;2022-07-25T05:36:53;5.40;;;4.37;;
3036;SDS011;1528;52.550;13.408;2022-07-25T05:39:42;4.47;;;4.13;;
3036;SDS011;1528;52.550;13.408;2022-07-25T05:42:28;5.30;;;5.00;;
3036;SDS011;1528;52.550;13.408;2022-07-25T05:45:14;6.97;;;5.13;;
3036;SDS011;1528;52.550;13.408;2022-07-25T05:47:59;5.77;;;5.20;;
3036;SDS011;1528;52.550;13.408;2022-07-25T05:50:46;6.33;;;5.73;;
3036;SDS011;1528;52.550;13.408;2022-07-25T05:53:32;7.73;;;7.00;;
3036;SDS011;1528;52.550;13.408;2022-07-25T05:56:17;6.40;;;5.80;;
3036;SDS011;1528;52.550;13.408;2022-07-25T05:59:03;5.97;;;5.40;;
3036;SDS011;1528;52.550;13.408;2022-07-25T06:01:48;5.50;;;5.00;;
3036;SDS011;1528;52.550;13.408;2022-07-25T06:04:34;6.20;;;5.70;;
3036;SDS011;1528;52.550;13.408;2022-07-25T06:07:21;6.30;;;5.80;;
3036;SDS011;1528;52.550;13.408;2022-07-25T06:10:07;6.13;;;5.73;;
3036;SDS011;1528;52.550;13.408;2022-07-25T06:12:53;5.83;;;5.00;;
3036;SDS011;1528;52.550;13.408;2022-07-25T06:15:38;5.40;;;5.07;;
3036;SDS011;1528;52.550;13.408;2022-07-25T06:18:24;6.60;;;5.53;;
3036;SDS011;1528;52.550;13.408;2022-07-25T06:21:10;5.90;;;5.50;;
3036;SDS011;1528;52.550;13.408;2022-07-25T06:23:57;5.53;;;5.13;;
3036;SDS011;1528;52.550;13.408;2022-07-25T06:26:43;5.70;;;5.20;;
3036;SDS011;1528;52.550;13.408;2022-07-25T06:29:28;6.87;;;5.63;;
3036;SDS011;1528;52.550;13.408;2022-07-25T06:32:13;6.80;;;6.23;;
3036;SDS011;1528;52.550;13.408;2022-07-25T06:34:59;5.57;;;5.20;;
3036;SDS011;1528;52.550;13.408;2022-07-25T06:37:45;6.03;;;5.50;;
3036;SDS011;1528;52.550;13.408;2022-07-25T06:40:35;6.13;;;5.73;;
3036;SDS011;1528;52.550;13.408;2022-07-25T06:43:20;5.97;;;5.37;;
3036;SDS011;1528;52.550;13.408;2022-07-25T06:46:06;6.20;;;5.70;;
3036;SDS011;1528;52.550;13.408;2022-07-25T06:48:51;6.53;;;6.07;;
3036;SDS011;1528;52.550;13.408;2022-07-25T06:51:37;7.17;;;6.67;;
3036;SDS011;1528;52.550;13.408;2022-07-25T06:54:22;5.97;;;5.57;;
3036;SDS011;1528;52.550;13.408;2022-07-25T06:57:09;6.23;;;5.83;;
3036;SDS011;1528;52.550;13.408;2022-07-25T06:59:55;6.37;;;5.77;;
3036;SDS011;1528;52.550;13.408;2022-07-25T07:02:48;6.70;;;6.20;;
3036;SDS011;1528;52.550;13.408;2022-07-25T07:05:34;7.10;;;6.40;;
3036;SDS011;1528;52.550;13.408;2022-07-25T07:08:20;7.73;;;7.03;;
3036;SDS011;1528;52.550;13.408;2022-07-25T07:11:06;8.93;;;7.23;;
3036;SDS011;1528;52.550;13.408;2022-07-25T07:13:53;21.93;;;9.50;;
3036;SDS011;1528;52.550;13.408;2022-07-25T07:16:38;16.90;;;9.07;;
3036;SDS011;1528;52.550;13.408;2022-07-25T07:19:26;8.83;;;6.93;;
3036;SDS011;1528;52.550;13.408;2022-07-25T07:22:11;9.60;;;8.67;;
3036;SDS011;1528;52.550;13.408;2022-07-25T07:24:57;8.20;;;7.37;;
3036;SDS011;1528;52.550;13.408;2022-07-25T07:27:42;6.63;;;6.00;;
3036;SDS011;1528;52.550;13.408;2022-07-25T07:30:29;9.30;;;6.70;;
3036;SDS011;1528;52.550;13.408;2022-07-25T07:33:15;7.47;;;6.87;;
3036;SDS011;1528;52.550;13.408;2022-07-25T07:36:01;7.83;;;7.23;;
3036;SDS011;1528;52.550;13.408;2022-07-25T07:38:47;8.33;;;7.83;;
3036;SDS011;1528;52.550;13.408;2022-07-25T07:41:32;8.20;;;7.50;;
3036;SDS011;1528;52.550;13.408;2022-07-25T07:44:18;10.00;;;7.80;;
3036;SDS011;1528;52.550;13.408;2022-07-25T07:47:05;8.27;;;6.67;;
3036;SDS011;1528;52.550;13.408;2022-07-25T07:49:50;9.50;;;8.57;;
3036;SDS011;1528;52.550;13.408;2022-07-25T07:52:36;8.40;;;7.80;;
3036;SDS011;1528;52.550;13.408;2022-07-25T07:55:22;8.80;;;8.10;;
3036;SDS011;1528;52.550;13.408;2022-07-25T07:58:25;9.17;;;8.30;;
3036;SDS011;1528;52.550;13.408;2022-07-25T08:01:10;9.63;;;9.00;;
3036;SDS011;1528;52.550;13.408;2022-07-25T08:03:57;9.93;;;8.90;;
3036;SDS011;1528;52.550;13.408;2022-07-25T08:06:43;7.93;;;7.30;;
3036;SDS011;1528;52.550;13.408;2022-07-25T08:09:28;8.53;;;7.97;;
3036;SDS011;1528;52.550;13.408;2022-07-25T08:12:14;9.53;;;8.73;;
3036;SDS011;1528;52.550;13.408;2022-07-25T08:15:03;9.63;;;8.73;;
3036;SDS011;1528;52.550;13.408;2022-07-25T08:17:50;17.33;;;13.90;;
3036;SDS011;1528;52.550;13.408;2022-07-25T08:20:37;12.90;;;8.57;;
3036;SDS011;1528;52.550;13.408;2022-07-25T08:23:22;10.00;;;9.10;;
3036;SDS011;1528;52.550;13.408;2022-07-25T08:26:10;19.73;;;11.60;;
3036;SDS011;1528;52.550;13.408;2022-07-25T08:28:56;9.67;;;8.97;;
3036;SDS011;1528;52.550;13.408;2022-07-25T08:31:42;11.13;;;10.20;;
3036;SDS011;1528;52.550;13.408;2022-07-25T08:34:27;12.00;;;9.43;;
3036;SDS011;1528;52.550;13.408;2022-07-25T08:37:14;11.73;;;10.43;;
3036;SDS011;1528;52.550;13.408;2022-07-25T08:40:00;9.83;;;9.03;;
3036;SDS011;1528;52.550;13.408;2022-07-25T08:42:46;10.17;;;9.27;;
3036;SDS011;1528;52.550;13.408;2022-07-25T08:45:32;14.33;;;10.57;;
3036;SDS011;1528;52.550;13.408;2022-07-25T08:48:18;14.80;;;10.37;;
3036;SDS011;1528;52.550;13.408;2022-07-25T08:51:05;12.67;;;10.10;;
3036;SDS011;1528;52.550;13.408;2022-07-25T08:53:53;8.83;;;8.23;;
3036;SDS011;1528;52.550;13.408;2022-07-25T08:56:38;10.70;;;9.60;;
3036;SDS011;1528;52.550;13.408;2022-07-25T08:59:36;10.23;;;9.43;;
3036;SDS011;1528;52.550;13.408;2022-07-25T09:02:22;10.33;;;9.67;;
3036;SDS011;1528;52.550;13.408;2022-07-25T09:05:08;11.47;;;10.67;;
3036;SDS011;1528;52.550;13.408;2022-07-25T09:11:29;11.67;;;10.10;;
3036;SDS011;1528;52.550;13.408;2022-07-25T09:14:26;11.43;;;10.43;;
3036;SDS011;1528;52.550;13.408;2022-07-25T09:17:12;11.10;;;10.30;;
3036;SDS011;1528;52.550;13.408;2022-07-25T09:19:57;11.93;;;10.97;;
3036;SDS011;1528;52.550;13.408;2022-07-25T09:22:43;10.23;;;9.43;;
3036;SDS011;1528;52.550;13.408;2022-07-25T09:25:29;10.53;;;9.63;;
3036;SDS011;1528;52.550;13.408;2022-07-25T09:28:16;11.47;;;10.70;;
3036;SDS011;1528;52.550;13.408;2022-07-25T09:31:03;10.50;;;9.80;;
3036;SDS011;1528;52.550;13.408;2022-07-25T09:33:50;10.67;;;9.67;;
3036;SDS011;1528;52.550;13.408;2022-07-25T09:36:49;12.03;;;11.20;;
3036;SDS011;1528;52.550;13.408;2022-07-25T09:39:37;12.20;;;11.00;;
3036;SDS011;1528;52.550;13.408;2022-07-25T09:42:24;10.67;;;9.87;;
3036;SDS011;1528;52.550;13.408;2022-07-25T09:45:12;10.80;;;9.93;;
3036;SDS011;1528;52.550;13.408;2022-07-25T09:47:59;12.33;;;11.33;;
3036;SDS011;1528;52.550;13.408;2022-07-25T09:50:46;10.53;;;9.73;;
3036;SDS011;1528;52.550;13.408;2022-07-25T09:53:32;12.57;;;11.60;;
3036;SDS011;1528;52.550;13.408;2022-07-25T09:56:17;14.47;;;13.27;;
3036;SDS011;1528;52.550;13.408;2022-07-25T09:59:03;13.20;;;11.60;;
3036;SDS011;1528;52.550;13.408;2022-07-25T10:01:53;12.87;;;11.97;;
3036;SDS011;1528;52.550;13.408;2022-07-25T10:04:46;13.03;;;12.13;;
3036;SDS011;1528;52.550;13.408;2022-07-25T10:07:41;12.77;;;11.90;;
3036;SDS011;1528;52.550;13.408;2022-07-25T10:10:30;12.30;;;11.40;;
3036;SDS011;1528;52.550;13.408;2022-07-25T10:13:27;11.93;;;10.93;;
3036;SDS011;1528;52.550;13.408;2022-07-25T10:16:14;13.00;;;12.17;;
3036;SDS011;1528;52.550;13.408;2022-07-25T10:19:03;14.23;;;13.33;;
3036;SDS011;1528;52.550;13.408;2022-07-25T10:21:53;15.33;;;13.80;;
3036;SDS011;1528;52.550;13.408;2022-07-25T10:24:42;14.37;;;13.47;;
3036;SDS011;1528;52.550;13.408;2022-07-25T10:27:28;15.27;;;14.30;;
3036;SDS011;1528;52.550;13.408;2022-07-25T10:30:26;13.73;;;12.93;;
3036;SDS011;1528;52.550;13.408;2022-07-25T10:33:13;14.83;;;13.83;;
3036;SDS011;1528;52.550;13.408;2022-07-25T10:36:05;13.90;;;13.00;;
3036;SDS011;1528;52.550;13.408;2022-07-25T10:38:52;14.50;;;13.60;;
3036;SDS011;1528;52.550;13.408;2022-07-25T10:41:41;13.63;;;12.77;;
3036;SDS011;1528;52.550;13.408;2022-07-25T10:44:39;14.63;;;13.73;;
3036;SDS011;1528;52.550;13.408;2022-07-25T10:47:26;13.40;;;12.60;;
3036;SDS011;1528;52.550;13.408;2022-07-25T10:50:11;14.60;;;13.70;;
3036;SDS011;1528;52.550;13.408;2022-07-25T10:52:58;13.40;;;12.43;;
3036;SDS011;1528;52.550;13.408;2022-07-25T10:55:55;13.43;;;12.67;;
3036;SDS011;1528;52.550;13.408;2022-07-25T10:58:44;14.73;;;13.83;;
3036;SDS011;1528;52.550;13.408;2022-07-25T11:01:34;12.60;;;11.90;;
3036;SDS011;1528;52.550;13.408;2022-07-25T11:04:19;11.30;;;10.60;;
3036;SDS011;1528;52.550;13.408;2022-07-25T11:07:09;12.30;;;11.50;;
3036;SDS011;1528;52.550;13.408;2022-07-25T11:09:57;13.63;;;12.80;;
3036;SDS011;1528;52.550;13.408;2022-07-25T11:12:44;14.17;;;13.30;;
3036;SDS011;1528;52.550;13.408;2022-07-25T11:15:30;13.20;;;12.47;;
3036;SDS011;1528;52.550;13.408;2022-07-25T11:18:16;12.90;;;12.10;;
3036;SDS011;1528;52.550;13.408;2022-07-25T11:21:02;12.10;;;11.30;;
3036;SDS011;1528;52.550;13.408;2022-07-25T11:23:49;13.00;;;12.00;;
3036;SDS011;1528;52.550;13.408;2022-07-25T11:26:44;12.63;;;11.83;;
3036;SDS011;1528;52.550;13.408;2022-07-25T11:29:30;12.60;;;11.77;;
3036;SDS011;1528;52.550;13.408;2022-07-25T11:32:17;12.70;;;11.90;;
3036;SDS011;1528;52.550;13.408;2022-07-25T11:35:03;13.23;;;12.43;;
3036;SDS011;1528;52.550;13.408;2022-07-25T11:37:49;12.40;;;11.60;;
3036;SDS011;1528;52.550;13.408;2022-07-25T11:40:41;13.30;;;12.53;;
3036;SDS011;1528;52.550;13.408;2022-07-25T11:43:28;11.53;;;10.93;;
3036;SDS011;1528;52.550;13.408;2022-07-25T11:46:14;13.13;;;12.43;;
3036;SDS011;1528;52.550;13.408;2022-07-25T11:49:02;15.53;;;14.53;;
3036;SDS011;1528;52.550;13.408;2022-07-25T11:51:51;13.23;;;12.40;;
3036;SDS011;1528;52.550;13.408;2022-07-25T11:54:37;11.90;;;11.30;;
3036;SDS011;1528;52.550;13.408;2022-07-25T11:57:34;12.80;;;12.20;;
3036;SDS011;1528;52.550;13.408;2022-07-25T12:00:21;14.83;;;14.13;;
3036;SDS011;1528;52.550;13.408;2022-07-25T12:03:07;13.03;;;12.33;;
3036;SDS011;1528;52.550;13.408;2022-07-25T12:05:54;15.67;;;14.77;;
3036;SDS011;1528;52.550;13.408;2022-07-25T12:08:41;11.07;;;10.27;;
3036;SDS011;1528;52.550;13.408;2022-07-25T12:11:27;10.30;;;9.80;;
3036;SDS011;1528;52.550;13.408;2022-07-25T12:14:12;12.97;;;12.47;;
3036;SDS011;1528;52.550;13.408;2022-07-25T12:17:00;10.63;;;10.03;;
3036;SDS011;1528;52.550;13.408;2022-07-25T12:19:45;9.90;;;9.40;;
3036;SDS011;1528;52.550;13.408;2022-07-25T12:22:31;11.37;;;10.87;;
3036;SDS011;1528;52.550;13.408;2022-07-25T12:25:17;12.10;;;11.50;;
3036;SDS011;1528;52.550;13.408;2022-07-25T12:28:02;10.70;;;10.10;;
3036;SDS011;1528;52.550;13.408;2022-07-25T12:30:52;11.30;;;10.80;;
3036;SDS011;1528;52.550;13.408;2022-07-25T12:33:39;12.63;;;11.93;;
3036;SDS011;1528;52.550;13.408;2022-07-25T12:36:24;11.03;;;10.47;;
3036;SDS011;1528;52.550;13.408;2022-07-25T12:39:10;13.00;;;12.40;;
3036;SDS011;1528;52.550;13.408;2022-07-25T12:41:55;16.53;;;15.93;;
3036;SDS011;1528;52.550;13.408;2022-07-25T12:44:41;15.03;;;14.53;;
3036;SDS011;1528;52.550;13.408;2022-07-25T12:47:26;13.83;;;12.93;;
3036;SDS011;1528;52.550;13.408;2022-07-25T12:50:14;13.00;;;12.50;;
3036;SDS011;1528;52.550;13.408;2022-07-25T12:53:02;10.73;;;10.13;;
3036;SDS011;1528;52.550;13.408;2022-07-25T12:55:49;12.70;;;12.10;;
3036;SDS011;1528;52.550;13.408;2022-07-25T12:58:35;12.43;;;11.83;;
3036;SDS011;1528;52.550;13.408;2022-07-25T13:01:20;11.37;;;10.97;;
3036;SDS011;1528;52.550;13.408;2022-07-25T13:04:06;11.30;;;10.80;;
3036;SDS011;1528;52.550;13.408;2022-07-25T13:06:54;12.57;;;11.70;;
3036;SDS011;1528;52.550;13.408;2022-07-25T13:09:40;11.67;;;11.07;;
3036;SDS011;1528;52.550;13.408;2022-07-25T13:12:26;9.87;;;9.33;;
3036;SDS011;1528;52.550;13.408;2022-07-25T13:15:12;12.57;;;12.07;;
3036;SDS011;1528;52.550;13.408;2022-07-25T13:17:57;11.00;;;10.30;;
3036;SDS011;1528;52.550;13.408;2022-07-25T13:20:43;11.00;;;10.50;;
3036;SDS011;1528;52.550;13.408;2022-07-25T13:23:30;11.30;;;10.80;;
3036;SDS011;1528;52.550;13.408;2022-07-25T13:26:15;12.47;;;11.67;;
3036;SDS011;1528;52.550;13.408;2022-07-25T13:29:01;10.27;;;9.77;;
3036;SDS011;1528;52.550;13.408;2022-07-25T13:31:50;10.53;;;10.03;;
3036;SDS011;1528;52.550;13.408;2022-07-25T13:34:36;11.07;;;10.57;;
3036;SDS011;1528;52.550;13.408;2022-07-25T13:37:21;13.00;;;12.40;;
3036;SDS011;1528;52.550;13.408;2022-07-25T13:40:08;11.70;;;11.10;;
3036;SDS011;1528;52.550;13.408;2022-07-25T13:42:54;11.23;;;10.73;;
3036;SDS011;1528;52.550;13.408;2022-07-25T13:45:39;11.33;;;10.67;;
3036;SDS011;1528;52.550;13.408;2022-07-25T13:48:25;10.60;;;9.80;;
3036;SDS011;1528;52.550;13.408;2022-07-25T13:51:11;9.43;;;8.90;;
3036;SDS011;1528;52.550;13.408;2022-07-25T13:53:57;11.90;;;11.20;;
3036;SDS011;1528;52.550;13.408;2022-07-25T13:56:56;11.73;;;11.13;;
3036;SDS011;1528;52.550;13.408;2022-07-25T13:59:42;12.13;;;11.63;;
3036;SDS011;1528;52.550;13.408;2022-07-25T14:02:27;11.90;;;11.23;;
3036;SDS011;1528;52.550;13.408;2022-07-25T14:05:13;12.63;;;11.97;;
3036;SDS011;1528;52.550;13.408;2022-07-25T14:07:58;11.70;;;10.97;;
3036;SDS011;1528;52.550;13.408;2022-07-25T14:10:55;11.27;;;10.77;;
3036;SDS011;1528;52.550;13.408;2022-07-25T14:14:07;12.27;;;11.77;;
3036;SDS011;1528;52.550;13.408;2022-07-25T14:16:53;8.90;;;8.40;;
3036;SDS011;1528;52.550;13.408;2022-07-25T14:19:38;9.00;;;8.50;;
3036;SDS011;1528;52.550;13.408;2022-07-25T14:22:24;9.20;;;8.80;;
3036;SDS011;1528;52.550;13.408;2022-07-25T14:25:10;8.50;;;8.10;;
3036;SDS011;1528;52.550;13.408;2022-07-25T14:27:59;9.93;;;9.53;;
3036;SDS011;1528;52.550;13.408;2022-07-25T14:30:46;9.23;;;8.83;;
3036;SDS011;1528;52.550;13.408;2022-07-25T14:36:57;10.10;;;9.30;;
3036;SDS011;1528;52.550;13.408;2022-07-25T14:39:43;8.57;;;8.17;;
3036;SDS011;1528;52.550;13.408;2022-07-25T14:42:32;10.17;;;9.67;;
3036;SDS011;1528;52.550;13.408;2022-07-25T14:45:20;8.10;;;7.70;;
3036;SDS011;1528;52.550;13.408;2022-07-25T14:48:07;9.87;;;9.27;;
3036;SDS011;1528;52.550;13.408;2022-07-25T14:50:53;9.60;;;9.07;;
3036;SDS011;1528;52.550;13.408;2022-07-25T14:53:38;9.30;;;8.80;;
3036;SDS011;1528;52.550;13.408;2022-07-25T14:56:24;9.37;;;8.87;;
3036;SDS011;1528;52.550;13.408;2022-07-25T14:59:10;9.50;;;9.00;;
3036;SDS011;1528;52.550;13.408;2022-07-25T15:01:56;10.13;;;9.33;;
3036;SDS011;1528;52.550;13.408;2022-07-25T15:04:43;8.50;;;8.00;;
3036;SDS011;1528;52.550;13.408;2022-07-25T15:07:28;9.23;;;8.63;;
3036;SDS011;1528;52.550;13.408;2022-07-25T15:10:14;9.27;;;8.67;;
3036;SDS011;1528;52.550;13.408;2022-07-25T15:12:59;9.00;;;8.50;;
3036;SDS011;1528;52.550;13.408;2022-07-25T15:15:45;9.40;;;8.87;;
3036;SDS011;1528;52.550;13.408;2022-07-25T15:18:31;9.33;;;8.73;;
3036;SDS011;1528;52.550;13.408;2022-07-25T15:21:17;9.13;;;8.43;;
3036;SDS011;1528;52.550;13.408;2022-07-25T15:24:04;9.07;;;8.47;;
3036;SDS011;1528;52.550;13.408;2022-07-25T15:26:50;8.30;;;7.73;;
3036;SDS011;1528;52.550;13.408;2022-07-25T15:29:35;9.63;;;8.83;;
3036;SDS011;1528;52.550;13.408;2022-07-25T15:32:21;9.27;;;8.67;;
3036;SDS011;1528;52.550;13.408;2022-07-25T15:35:07;9.03;;;8.33;;
3036;SDS011;1528;52.550;13.408;2022-07-25T15:37:54;9.07;;;8.57;;
3036;SDS011;1528;52.550;13.408;2022-07-25T15:40:39;10.07;;;9.47;;
3036;SDS011;1528;52.550;13.408;2022-07-25T15:43:25;9.40;;;8.80;;
3036;SDS011;1528;52.550;13.408;2022-07-25T15:46:11;10.43;;;9.67;;
3036;SDS011;1528;52.550;13.408;2022-07-25T15:48:57;10.07;;;9.47;;
3036;SDS011;1528;52.550;13.408;2022-07-25T15:51:42;9.83;;;9.23;;
3036;SDS011;1528;52.550;13.408;2022-07-25T15:54:29;10.17;;;9.47;;
3036;SDS011;1528;52.550;13.408;2022-07-25T15:57:14;9.33;;;8.63;;
3036;SDS011;1528;52.550;13.408;2022-07-25T16:00:00;9.47;;;8.87;;
3036;SDS011;1528;52.550;13.408;2022-07-25T16:02:46;9.63;;;9.13;;
3036;SDS011;1528;52.550;13.408;2022-07-25T16:05:32;9.53;;;8.77;;
3036;SDS011;1528;52.550;13.408;2022-07-25T16:08:18;10.33;;;9.73;;
3036;SDS011;1528;52.550;13.408;2022-07-25T16:11:05;9.87;;;9.27;;
3036;SDS011;1528;52.550;13.408;2022-07-25T16:13:51;9.40;;;8.80;;
3036;SDS011;1528;52.550;13.408;2022-07-25T16:16:36;9.87;;;9.37;;
3036;SDS011;1528;52.550;13.408;2022-07-25T16:19:22;10.17;;;9.67;;
3036;SDS011;1528;52.550;13.408;2022-07-25T16:22:09;11.10;;;10.10;;
3036;SDS011;1528;52.550;13.408;2022-07-25T16:24:56;75.10;;;42.40;;
3036;SDS011;1528;52.550;13.408;2022-07-25T16:53:34;10.17;;;9.57;;
3036;SDS011;1528;52.550;13.408;2022-07-25T17:33:13;16.97;;;15.37;;
3036;SDS011;1528;52.550;13.408;2022-07-25T21:13:17;9.40;;;8.53;;
3036;SDS011;1528;52.550;13.408;2022-07-25T21:16:18;10.27;;;9.57;;
3036;SDS011;1528;52.550;13.408;2022-07-25T21:26:47;10.47;;;9.30;;
3036;SDS011;1528;52.550;13.408;2022-07-25T21:30:07;9.20;;;8.47;;
3036;SDS011;1528;52.550;13.408;2022-07-25T22:57:32;10.63;;;9.87;;
